sensor_id;sensor_type;location;lat;lon;timestamp;P1;durP1;ratioP1;P2;durP2;ratioP2
24873;SDS011;12945;42.648;23.370;2024-03-02T00:02:18;53.55;;;28.75;;
24873;SDS011;12945;42.648;23.370;2024-03-02T00:04:46;49.90;;;28.08;;
24873;SDS011;12945;42.648;23.370;2024-03-02T00:07:13;53.83;;;28.75;;
24873;SDS011;12945;42.648;23.370;2024-03-02T00:09:39;52.75;;;27.27;;
24873;SDS011;12945;42.648;23.370;2024-03-02T00:12:04;48.67;;;26.80;;
24873;SDS011;12945;42.648;23.370;2024-03-02T00:14:30;49.20;;;28.05;;
24873;SDS011;12945;42.648;23.370;2024-03-02T00:16:55;51.70;;;28.75;;
24873;SDS011;12945;42.648;23.370;2024-03-02T00:19:21;51.85;;;27.90;;
24873;SDS011;12945;42.648;23.370;2024-03-02T00:21:46;51.78;;;27.77;;
24873;SDS011;12945;42.648;23.370;2024-03-02T00:24:17;51.35;;;28.05;;
24873;SDS011;12945;42.648;23.370;2024-03-02T00:26:45;51.53;;;26.90;;
24873;SDS011;12945;42.648;23.370;2024-03-02T00:29:10;47.92;;;26.80;;
24873;SDS011;12945;42.648;23.370;2024-03-02T00:31:38;56.03;;;28.15;;
24873;SDS011;12945;42.648;23.370;2024-03-02T00:34:04;50.33;;;27.33;;
24873;SDS011;12945;42.648;23.370;2024-03-02T00:36:30;49.53;;;25.80;;
24873;SDS011;12945;42.648;23.370;2024-03-02T00:38:56;55.63;;;27.80;;
24873;SDS011;12945;42.648;23.370;2024-03-02T00:41:25;53.03;;;28.75;;
24873;SDS011;12945;42.648;23.370;2024-03-02T00:46:23;51.58;;;26.63;;
24873;SDS011;12945;42.648;23.370;2024-03-02T00:48:58;44.53;;;24.70;;
24873;SDS011;12945;42.648;23.370;2024-03-02T00:51:25;54.17;;;26.95;;
24873;SDS011;12945;42.648;23.370;2024-03-02T00:53:51;48.22;;;25.77;;
24873;SDS011;12945;42.648;23.370;2024-03-02T00:56:17;46.40;;;25.50;;
24873;SDS011;12945;42.648;23.370;2024-03-02T00:58:42;44.50;;;25.02;;
24873;SDS011;12945;42.648;23.370;2024-03-02T01:01:08;46.05;;;23.13;;
24873;SDS011;12945;42.648;23.370;2024-03-02T01:03:34;44.78;;;23.73;;
24873;SDS011;12945;42.648;23.370;2024-03-02T01:05:59;39.85;;;22.83;;
24873;SDS011;12945;42.648;23.370;2024-03-02T01:08:25;47.50;;;24.92;;
24873;SDS011;12945;42.648;23.370;2024-03-02T01:10:51;42.10;;;23.88;;
24873;SDS011;12945;42.648;23.370;2024-03-02T01:13:16;39.78;;;22.98;;
24873;SDS011;12945;42.648;23.370;2024-03-02T01:15:42;39.47;;;22.00;;
24873;SDS011;12945;42.648;23.370;2024-03-02T01:18:07;40.42;;;23.20;;
24873;SDS011;12945;42.648;23.370;2024-03-02T01:20:32;42.60;;;23.10;;
24873;SDS011;12945;42.648;23.370;2024-03-02T01:22:58;44.83;;;23.23;;
24873;SDS011;12945;42.648;23.370;2024-03-02T01:25:23;37.85;;;22.02;;
24873;SDS011;12945;42.648;23.370;2024-03-02T01:27:48;41.75;;;22.55;;
24873;SDS011;12945;42.648;23.370;2024-03-02T01:30:14;48.20;;;22.17;;
24873;SDS011;12945;42.648;23.370;2024-03-02T01:32:39;44.25;;;23.42;;
24873;SDS011;12945;42.648;23.370;2024-03-02T01:35:05;42.75;;;22.05;;
24873;SDS011;12945;42.648;23.370;2024-03-02T01:37:30;41.63;;;22.92;;
24873;SDS011;12945;42.648;23.370;2024-03-02T01:39:55;43.15;;;22.42;;
24873;SDS011;12945;42.648;23.370;2024-03-02T01:42:20;41.45;;;22.63;;
24873;SDS011;12945;42.648;23.370;2024-03-02T01:44:46;42.38;;;22.98;;
24873;SDS011;12945;42.648;23.370;2024-03-02T01:47:11;40.50;;;23.20;;
24873;SDS011;12945;42.648;23.370;2024-03-02T01:49:36;43.15;;;23.70;;
24873;SDS011;12945;42.648;23.370;2024-03-02T01:52:03;40.42;;;23.08;;
24873;SDS011;12945;42.648;23.370;2024-03-02T01:54:29;41.78;;;23.25;;
24873;SDS011;12945;42.648;23.370;2024-03-02T01:56:54;41.40;;;23.33;;
24873;SDS011;12945;42.648;23.370;2024-03-02T01:59:19;41.95;;;22.45;;
24873;SDS011;12945;42.648;23.370;2024-03-02T02:01:45;37.50;;;22.33;;
24873;SDS011;12945;42.648;23.370;2024-03-02T02:04:10;46.10;;;23.17;;
24873;SDS011;12945;42.648;23.370;2024-03-02T02:06:35;44.92;;;23.63;;
24873;SDS011;12945;42.648;23.370;2024-03-02T02:09:00;42.53;;;23.77;;
24873;SDS011;12945;42.648;23.370;2024-03-02T02:11:26;39.70;;;20.80;;
24873;SDS011;12945;42.648;23.370;2024-03-02T02:13:51;41.15;;;23.02;;
24873;SDS011;12945;42.648;23.370;2024-03-02T02:16:16;44.33;;;25.02;;
24873;SDS011;12945;42.648;23.370;2024-03-02T02:18:42;46.05;;;25.50;;
24873;SDS011;12945;42.648;23.370;2024-03-02T02:21:07;46.10;;;25.88;;
24873;SDS011;12945;42.648;23.370;2024-03-02T02:23:32;48.35;;;26.98;;
24873;SDS011;12945;42.648;23.370;2024-03-02T02:25:58;51.85;;;27.77;;
24873;SDS011;12945;42.648;23.370;2024-03-02T02:28:23;47.08;;;27.48;;
24873;SDS011;12945;42.648;23.370;2024-03-02T02:30:48;47.13;;;27.52;;
24873;SDS011;12945;42.648;23.370;2024-03-02T02:33:13;50.05;;;28.15;;
24873;SDS011;12945;42.648;23.370;2024-03-02T02:35:39;49.90;;;28.05;;
24873;SDS011;12945;42.648;23.370;2024-03-02T02:38:04;46.53;;;27.00;;
24873;SDS011;12945;42.648;23.370;2024-03-02T02:40:29;55.03;;;28.02;;
24873;SDS011;12945;42.648;23.370;2024-03-02T02:42:56;47.45;;;27.23;;
24873;SDS011;12945;42.648;23.370;2024-03-02T02:45:21;55.63;;;29.80;;
24873;SDS011;12945;42.648;23.370;2024-03-02T02:47:46;51.33;;;28.05;;
24873;SDS011;12945;42.648;23.370;2024-03-02T02:50:11;49.92;;;27.23;;
24873;SDS011;12945;42.648;23.370;2024-03-02T02:52:38;55.05;;;29.65;;
24873;SDS011;12945;42.648;23.370;2024-03-02T02:55:05;54.92;;;30.02;;
24873;SDS011;12945;42.648;23.370;2024-03-02T02:57:31;55.75;;;29.98;;
24873;SDS011;12945;42.648;23.370;2024-03-02T03:00:00;53.37;;;29.00;;
24873;SDS011;12945;42.648;23.370;2024-03-02T03:02:27;49.30;;;29.05;;
24873;SDS011;12945;42.648;23.370;2024-03-02T03:04:52;51.47;;;29.48;;
24873;SDS011;12945;42.648;23.370;2024-03-02T03:07:18;54.33;;;29.65;;
24873;SDS011;12945;42.648;23.370;2024-03-02T03:09:43;54.75;;;28.77;;
24873;SDS011;12945;42.648;23.370;2024-03-02T03:12:08;44.20;;;27.35;;
24873;SDS011;12945;42.648;23.370;2024-03-02T03:14:33;52.38;;;27.55;;
24873;SDS011;12945;42.648;23.370;2024-03-02T03:16:59;50.85;;;27.85;;
24873;SDS011;12945;42.648;23.370;2024-03-02T03:19:24;46.67;;;27.00;;
24873;SDS011;12945;42.648;23.370;2024-03-02T03:21:49;48.17;;;26.20;;
24873;SDS011;12945;42.648;23.370;2024-03-02T03:24:15;46.85;;;26.40;;
24873;SDS011;12945;42.648;23.370;2024-03-02T03:26:40;42.95;;;25.48;;
24873;SDS011;12945;42.648;23.370;2024-03-02T03:29:05;46.28;;;25.77;;
24873;SDS011;12945;42.648;23.370;2024-03-02T03:31:31;43.72;;;24.80;;
24873;SDS011;12945;42.648;23.370;2024-03-02T03:33:56;46.35;;;25.02;;
24873;SDS011;12945;42.648;23.370;2024-03-02T03:36:22;44.45;;;25.42;;
24873;SDS011;12945;42.648;23.370;2024-03-02T03:38:48;46.45;;;26.08;;
24873;SDS011;12945;42.648;23.370;2024-03-02T03:41:13;46.63;;;25.88;;
24873;SDS011;12945;42.648;23.370;2024-03-02T03:43:38;40.05;;;23.70;;
24873;SDS011;12945;42.648;23.370;2024-03-02T03:46:03;42.60;;;24.05;;
24873;SDS011;12945;42.648;23.370;2024-03-02T03:48:29;48.90;;;25.55;;
24873;SDS011;12945;42.648;23.370;2024-03-02T03:50:56;46.15;;;24.35;;
24873;SDS011;12945;42.648;23.370;2024-03-02T03:53:21;43.45;;;25.45;;
24873;SDS011;12945;42.648;23.370;2024-03-02T03:55:47;48.30;;;26.58;;
24873;SDS011;12945;42.648;23.370;2024-03-02T03:58:14;47.22;;;25.55;;
24873;SDS011;12945;42.648;23.370;2024-03-02T04:00:39;46.33;;;26.10;;
24873;SDS011;12945;42.648;23.370;2024-03-02T04:03:04;46.03;;;25.55;;
24873;SDS011;12945;42.648;23.370;2024-03-02T04:05:30;41.17;;;25.08;;
24873;SDS011;12945;42.648;23.370;2024-03-02T04:07:55;41.08;;;24.45;;
24873;SDS011;12945;42.648;23.370;2024-03-02T04:10:20;47.78;;;26.17;;
24873;SDS011;12945;42.648;23.370;2024-03-02T04:12:46;45.17;;;25.77;;
24873;SDS011;12945;42.648;23.370;2024-03-02T04:15:11;45.25;;;25.35;;
24873;SDS011;12945;42.648;23.370;2024-03-02T04:17:36;45.88;;;25.95;;
24873;SDS011;12945;42.648;23.370;2024-03-02T04:20:02;53.08;;;26.23;;
24873;SDS011;12945;42.648;23.370;2024-03-02T04:22:30;50.85;;;27.00;;
24873;SDS011;12945;42.648;23.370;2024-03-02T04:24:55;48.45;;;26.20;;
24873;SDS011;12945;42.648;23.370;2024-03-02T04:27:20;45.95;;;25.63;;
24873;SDS011;12945;42.648;23.370;2024-03-02T04:29:46;45.20;;;25.85;;
24873;SDS011;12945;42.648;23.370;2024-03-02T04:32:11;51.28;;;27.00;;
24873;SDS011;12945;42.648;23.370;2024-03-02T04:34:36;45.65;;;25.85;;
24873;SDS011;12945;42.648;23.370;2024-03-02T04:37:01;48.22;;;26.35;;
24873;SDS011;12945;42.648;23.370;2024-03-02T04:39:27;53.67;;;27.17;;
24873;SDS011;12945;42.648;23.370;2024-03-02T04:41:52;52.47;;;25.52;;
24873;SDS011;12945;42.648;23.370;2024-03-02T04:44:17;46.50;;;25.95;;
24873;SDS011;12945;42.648;23.370;2024-03-02T04:46:42;44.88;;;25.60;;
24873;SDS011;12945;42.648;23.370;2024-03-02T04:49:08;49.00;;;25.40;;
24873;SDS011;12945;42.648;23.370;2024-03-02T04:51:33;46.10;;;24.73;;
24873;SDS011;12945;42.648;23.370;2024-03-02T04:53:59;47.22;;;26.00;;
24873;SDS011;12945;42.648;23.370;2024-03-02T04:56:24;45.60;;;26.05;;
24873;SDS011;12945;42.648;23.370;2024-03-02T04:59:04;44.13;;;25.00;;
24873;SDS011;12945;42.648;23.370;2024-03-02T05:01:29;49.72;;;26.85;;
24873;SDS011;12945;42.648;23.370;2024-03-02T05:03:55;46.17;;;25.90;;
24873;SDS011;12945;42.648;23.370;2024-03-02T05:06:21;55.40;;;27.85;;
24873;SDS011;12945;42.648;23.370;2024-03-02T05:08:46;44.97;;;25.88;;
24873;SDS011;12945;42.648;23.370;2024-03-02T05:11:13;51.90;;;28.13;;
24873;SDS011;12945;42.648;23.370;2024-03-02T05:14:16;50.15;;;28.02;;
24873;SDS011;12945;42.648;23.370;2024-03-02T05:16:41;52.28;;;27.70;;
24873;SDS011;12945;42.648;23.370;2024-03-02T05:19:07;52.60;;;27.95;;
24873;SDS011;12945;42.648;23.370;2024-03-02T05:21:32;47.38;;;27.00;;
24873;SDS011;12945;42.648;23.370;2024-03-02T05:23:58;52.08;;;26.98;;
24873;SDS011;12945;42.648;23.370;2024-03-02T05:26:24;51.67;;;26.58;;
24873;SDS011;12945;42.648;23.370;2024-03-02T05:28:49;54.63;;;28.08;;
24873;SDS011;12945;42.648;23.370;2024-03-02T05:31:14;50.08;;;26.63;;
24873;SDS011;12945;42.648;23.370;2024-03-02T05:33:40;51.47;;;26.95;;
24873;SDS011;12945;42.648;23.370;2024-03-02T05:36:05;48.58;;;27.40;;
24873;SDS011;12945;42.648;23.370;2024-03-02T05:38:31;47.42;;;26.42;;
24873;SDS011;12945;42.648;23.370;2024-03-02T05:40:56;48.47;;;25.98;;
24873;SDS011;12945;42.648;23.370;2024-03-02T05:43:21;48.28;;;26.10;;
24873;SDS011;12945;42.648;23.370;2024-03-02T05:45:47;44.97;;;23.33;;
24873;SDS011;12945;42.648;23.370;2024-03-02T05:48:12;44.35;;;24.60;;
24873;SDS011;12945;42.648;23.370;2024-03-02T05:50:37;42.92;;;24.27;;
24873;SDS011;12945;42.648;23.370;2024-03-02T05:53:03;43.53;;;23.83;;
24873;SDS011;12945;42.648;23.370;2024-03-02T05:55:28;41.33;;;23.92;;
24873;SDS011;12945;42.648;23.370;2024-03-02T05:57:53;41.17;;;23.67;;
24873;SDS011;12945;42.648;23.370;2024-03-02T06:00:31;46.72;;;25.23;;
24873;SDS011;12945;42.648;23.370;2024-03-02T06:02:56;44.13;;;22.80;;
24873;SDS011;12945;42.648;23.370;2024-03-02T06:05:21;44.20;;;24.42;;
24873;SDS011;12945;42.648;23.370;2024-03-02T06:07:46;45.83;;;25.02;;
24873;SDS011;12945;42.648;23.370;2024-03-02T06:10:12;40.60;;;23.80;;
24873;SDS011;12945;42.648;23.370;2024-03-02T06:12:37;46.03;;;25.13;;
24873;SDS011;12945;42.648;23.370;2024-03-02T06:15:02;52.83;;;26.05;;
24873;SDS011;12945;42.648;23.370;2024-03-02T06:17:29;46.40;;;25.02;;
24873;SDS011;12945;42.648;23.370;2024-03-02T06:19:54;49.28;;;24.73;;
24873;SDS011;12945;42.648;23.370;2024-03-02T06:22:20;43.80;;;24.55;;
24873;SDS011;12945;42.648;23.370;2024-03-02T06:24:46;46.35;;;24.33;;
24873;SDS011;12945;42.648;23.370;2024-03-02T06:27:11;45.55;;;25.13;;
24873;SDS011;12945;42.648;23.370;2024-03-02T06:29:36;39.28;;;22.92;;
24873;SDS011;12945;42.648;23.370;2024-03-02T06:32:02;47.17;;;23.52;;
24873;SDS011;12945;42.648;23.370;2024-03-02T06:34:27;48.15;;;25.35;;
24873;SDS011;12945;42.648;23.370;2024-03-02T06:36:52;46.03;;;24.73;;
24873;SDS011;12945;42.648;23.370;2024-03-02T06:39:17;43.45;;;23.75;;
24873;SDS011;12945;42.648;23.370;2024-03-02T06:41:43;52.25;;;24.80;;
24873;SDS011;12945;42.648;23.370;2024-03-02T06:44:08;46.13;;;23.95;;
24873;SDS011;12945;42.648;23.370;2024-03-02T06:46:33;42.17;;;23.92;;
24873;SDS011;12945;42.648;23.370;2024-03-02T06:48:59;53.08;;;25.80;;
24873;SDS011;12945;42.648;23.370;2024-03-02T06:51:24;46.25;;;24.25;;
24873;SDS011;12945;42.648;23.370;2024-03-02T06:53:49;45.17;;;25.45;;
24873;SDS011;12945;42.648;23.370;2024-03-02T06:56:14;44.72;;;24.92;;
24873;SDS011;12945;42.648;23.370;2024-03-02T06:58:40;43.97;;;24.45;;
24873;SDS011;12945;42.648;23.370;2024-03-02T07:01:05;47.80;;;25.20;;
24873;SDS011;12945;42.648;23.370;2024-03-02T07:03:30;44.97;;;25.50;;
24873;SDS011;12945;42.648;23.370;2024-03-02T07:05:55;47.25;;;25.48;;
24873;SDS011;12945;42.648;23.370;2024-03-02T07:08:21;50.63;;;25.13;;
24873;SDS011;12945;42.648;23.370;2024-03-02T07:10:46;46.42;;;25.30;;
24873;SDS011;12945;42.648;23.370;2024-03-02T07:13:12;50.28;;;24.40;;
24873;SDS011;12945;42.648;23.370;2024-03-02T07:15:38;46.75;;;26.02;;
24873;SDS011;12945;42.648;23.370;2024-03-02T07:18:03;54.00;;;26.50;;
24873;SDS011;12945;42.648;23.370;2024-03-02T07:20:29;45.83;;;24.65;;
24873;SDS011;12945;42.648;23.370;2024-03-02T07:22:54;48.80;;;25.38;;
24873;SDS011;12945;42.648;23.370;2024-03-02T07:25:20;54.67;;;25.85;;
24873;SDS011;12945;42.648;23.370;2024-03-02T07:27:45;53.33;;;27.23;;
24873;SDS011;12945;42.648;23.370;2024-03-02T07:30:13;50.65;;;27.30;;
24873;SDS011;12945;42.648;23.370;2024-03-02T07:32:38;48.22;;;26.38;;
24873;SDS011;12945;42.648;23.370;2024-03-02T07:35:04;56.53;;;27.00;;
24873;SDS011;12945;42.648;23.370;2024-03-02T07:37:29;50.80;;;26.80;;
24873;SDS011;12945;42.648;23.370;2024-03-02T07:39:55;45.30;;;24.23;;
24873;SDS011;12945;42.648;23.370;2024-03-02T07:42:20;49.92;;;24.90;;
24873;SDS011;12945;42.648;23.370;2024-03-02T07:44:46;48.67;;;25.75;;
24873;SDS011;12945;42.648;23.370;2024-03-02T07:47:11;43.40;;;25.00;;
24873;SDS011;12945;42.648;23.370;2024-03-02T07:49:36;53.55;;;25.27;;
24873;SDS011;12945;42.648;23.370;2024-03-02T07:52:01;45.47;;;24.33;;
24873;SDS011;12945;42.648;23.370;2024-03-02T07:54:27;47.40;;;23.50;;
24873;SDS011;12945;42.648;23.370;2024-03-02T07:56:52;47.47;;;25.30;;
24873;SDS011;12945;42.648;23.370;2024-03-02T07:59:17;45.35;;;24.10;;
24873;SDS011;12945;42.648;23.370;2024-03-02T08:01:43;50.15;;;25.08;;
24873;SDS011;12945;42.648;23.370;2024-03-02T08:04:08;47.22;;;25.48;;
24873;SDS011;12945;42.648;23.370;2024-03-02T08:06:33;47.00;;;24.92;;
24873;SDS011;12945;42.648;23.370;2024-03-02T08:08:59;48.10;;;24.15;;
24873;SDS011;12945;42.648;23.370;2024-03-02T08:11:25;50.22;;;26.38;;
24873;SDS011;12945;42.648;23.370;2024-03-02T08:13:52;45.17;;;26.02;;
24873;SDS011;12945;42.648;23.370;2024-03-02T08:16:19;52.53;;;28.45;;
24873;SDS011;12945;42.648;23.370;2024-03-02T08:18:47;51.42;;;28.58;;
24873;SDS011;12945;42.648;23.370;2024-03-02T08:21:13;49.83;;;27.98;;
24873;SDS011;12945;42.648;23.370;2024-03-02T08:23:40;46.53;;;25.88;;
24873;SDS011;12945;42.648;23.370;2024-03-02T08:26:07;47.45;;;25.73;;
24873;SDS011;12945;42.648;23.370;2024-03-02T08:28:32;48.65;;;24.65;;
24873;SDS011;12945;42.648;23.370;2024-03-02T08:30:58;43.78;;;24.27;;
24873;SDS011;12945;42.648;23.370;2024-03-02T08:33:23;51.78;;;25.35;;
24873;SDS011;12945;42.648;23.370;2024-03-02T08:35:48;42.97;;;25.30;;
24873;SDS011;12945;42.648;23.370;2024-03-02T08:38:13;45.08;;;25.48;;
24873;SDS011;12945;42.648;23.370;2024-03-02T08:40:39;50.63;;;25.90;;
24873;SDS011;12945;42.648;23.370;2024-03-02T08:43:04;42.63;;;24.02;;
24873;SDS011;12945;42.648;23.370;2024-03-02T08:45:29;43.22;;;23.67;;
24873;SDS011;12945;42.648;23.370;2024-03-02T08:47:54;39.95;;;23.98;;
24873;SDS011;12945;42.648;23.370;2024-03-02T08:50:20;44.13;;;23.50;;
24873;SDS011;12945;42.648;23.370;2024-03-02T08:52:45;48.97;;;25.52;;
24873;SDS011;12945;42.648;23.370;2024-03-02T08:55:10;43.22;;;24.30;;
24873;SDS011;12945;42.648;23.370;2024-03-02T08:57:36;43.38;;;23.25;;
24873;SDS011;12945;42.648;23.370;2024-03-02T09:00:01;43.97;;;23.73;;
24873;SDS011;12945;42.648;23.370;2024-03-02T09:02:27;42.45;;;24.10;;
24873;SDS011;12945;42.648;23.370;2024-03-02T09:04:52;44.03;;;23.85;;
24873;SDS011;12945;42.648;23.370;2024-03-02T09:07:18;47.28;;;24.42;;
24873;SDS011;12945;42.648;23.370;2024-03-02T09:09:43;43.33;;;22.95;;
24873;SDS011;12945;42.648;23.370;2024-03-02T09:12:08;51.00;;;23.55;;
24873;SDS011;12945;42.648;23.370;2024-03-02T09:14:34;38.20;;;21.55;;
24873;SDS011;12945;42.648;23.370;2024-03-02T09:17:00;41.67;;;22.75;;
24873;SDS011;12945;42.648;23.370;2024-03-02T09:19:25;37.83;;;19.77;;
24873;SDS011;12945;42.648;23.370;2024-03-02T09:21:50;37.38;;;21.10;;
24873;SDS011;12945;42.648;23.370;2024-03-02T09:24:16;34.33;;;19.83;;
24873;SDS011;12945;42.648;23.370;2024-03-02T09:26:41;31.17;;;18.00;;
24873;SDS011;12945;42.648;23.370;2024-03-02T09:29:06;33.90;;;18.63;;
24873;SDS011;12945;42.648;23.370;2024-03-02T09:31:31;42.67;;;20.48;;
24873;SDS011;12945;42.648;23.370;2024-03-02T09:33:57;33.28;;;18.90;;
24873;SDS011;12945;42.648;23.370;2024-03-02T09:36:22;37.72;;;18.58;;
24873;SDS011;12945;42.648;23.370;2024-03-02T09:38:47;35.30;;;20.10;;
24873;SDS011;12945;42.648;23.370;2024-03-02T09:41:14;38.45;;;20.45;;
24873;SDS011;12945;42.648;23.370;2024-03-02T09:43:39;40.03;;;21.08;;
24873;SDS011;12945;42.648;23.370;2024-03-02T09:46:05;41.20;;;22.42;;
24873;SDS011;12945;42.648;23.370;2024-03-02T09:48:31;37.22;;;21.20;;
24873;SDS011;12945;42.648;23.370;2024-03-02T09:50:56;35.50;;;20.15;;
24873;SDS011;12945;42.648;23.370;2024-03-02T09:53:22;36.80;;;22.00;;
24873;SDS011;12945;42.648;23.370;2024-03-02T09:55:47;39.38;;;21.55;;
24873;SDS011;12945;42.648;23.370;2024-03-02T09:58:12;38.88;;;21.40;;
24873;SDS011;12945;42.648;23.370;2024-03-02T10:00:38;40.42;;;23.13;;
24873;SDS011;12945;42.648;23.370;2024-03-02T10:03:03;41.58;;;22.60;;
24873;SDS011;12945;42.648;23.370;2024-03-02T10:05:29;44.40;;;22.98;;
24873;SDS011;12945;42.648;23.370;2024-03-02T10:07:58;42.78;;;22.88;;
24873;SDS011;12945;42.648;23.370;2024-03-02T10:10:24;47.33;;;25.55;;
24873;SDS011;12945;42.648;23.370;2024-03-02T10:12:53;46.28;;;26.25;;
24873;SDS011;12945;42.648;23.370;2024-03-02T10:15:28;48.17;;;26.08;;
24873;SDS011;12945;42.648;23.370;2024-03-02T10:17:53;45.88;;;26.50;;
24873;SDS011;12945;42.648;23.370;2024-03-02T10:20:25;50.33;;;26.45;;
24873;SDS011;12945;42.648;23.370;2024-03-02T10:22:50;49.15;;;26.42;;
24873;SDS011;12945;42.648;23.370;2024-03-02T10:25:32;50.67;;;26.48;;
24873;SDS011;12945;42.648;23.370;2024-03-02T10:28:00;53.63;;;27.73;;
24873;SDS011;12945;42.648;23.370;2024-03-02T10:30:26;55.88;;;27.67;;
24873;SDS011;12945;42.648;23.370;2024-03-02T10:32:52;51.50;;;28.10;;
24873;SDS011;12945;42.648;23.370;2024-03-02T10:35:18;52.28;;;27.83;;
24873;SDS011;12945;42.648;23.370;2024-03-02T10:37:44;50.25;;;26.70;;
24873;SDS011;12945;42.648;23.370;2024-03-02T10:40:10;45.42;;;25.98;;
24873;SDS011;12945;42.648;23.370;2024-03-02T10:42:36;52.03;;;27.33;;
24873;SDS011;12945;42.648;23.370;2024-03-02T10:45:02;47.17;;;24.02;;
24873;SDS011;12945;42.648;23.370;2024-03-02T10:47:28;40.75;;;22.83;;
24873;SDS011;12945;42.648;23.370;2024-03-02T10:49:54;42.72;;;22.58;;
24873;SDS011;12945;42.648;23.370;2024-03-02T10:52:21;38.65;;;21.67;;
24873;SDS011;12945;42.648;23.370;2024-03-02T10:54:48;40.30;;;21.65;;
24873;SDS011;12945;42.648;23.370;2024-03-02T10:57:13;36.90;;;20.30;;
24873;SDS011;12945;42.648;23.370;2024-03-02T10:59:43;35.45;;;20.40;;
24873;SDS011;12945;42.648;23.370;2024-03-02T11:02:12;39.28;;;21.70;;
24873;SDS011;12945;42.648;23.370;2024-03-02T11:04:39;36.20;;;20.23;;
24873;SDS011;12945;42.648;23.370;2024-03-02T11:07:09;34.95;;;20.42;;
24873;SDS011;12945;42.648;23.370;2024-03-02T11:09:36;36.55;;;20.73;;
24873;SDS011;12945;42.648;23.370;2024-03-02T11:12:03;41.78;;;21.20;;
24873;SDS011;12945;42.648;23.370;2024-03-02T11:14:29;35.17;;;19.58;;
24873;SDS011;12945;42.648;23.370;2024-03-02T11:16:55;36.75;;;20.42;;
24873;SDS011;12945;42.648;23.370;2024-03-02T11:19:20;34.10;;;19.20;;
24873;SDS011;12945;42.648;23.370;2024-03-02T11:21:46;36.55;;;19.50;;
24873;SDS011;12945;42.648;23.370;2024-03-02T11:26:46;30.90;;;18.40;;
24873;SDS011;12945;42.648;23.370;2024-03-02T11:29:42;33.78;;;19.67;;
24873;SDS011;12945;42.648;23.370;2024-03-02T11:31:57;37.60;;;19.60;;
24873;SDS011;12945;42.648;23.370;2024-03-02T11:36:54;31.77;;;18.73;;
24873;SDS011;12945;42.648;23.370;2024-03-02T11:39:19;33.42;;;19.60;;
24873;SDS011;12945;42.648;23.370;2024-03-02T11:41:45;34.05;;;20.00;;
24873;SDS011;12945;42.648;23.370;2024-03-02T11:44:10;35.15;;;19.08;;
24873;SDS011;12945;42.648;23.370;2024-03-02T11:46:37;32.00;;;19.50;;
24873;SDS011;12945;42.648;23.370;2024-03-02T11:49:04;31.63;;;18.95;;
24873;SDS011;12945;42.648;23.370;2024-03-02T11:51:29;30.27;;;18.50;;
24873;SDS011;12945;42.648;23.370;2024-03-02T11:53:56;31.88;;;18.35;;
24873;SDS011;12945;42.648;23.370;2024-03-02T11:56:22;34.55;;;18.75;;
24873;SDS011;12945;42.648;23.370;2024-03-02T11:58:49;29.15;;;16.55;;
24873;SDS011;12945;42.648;23.370;2024-03-02T12:01:18;30.25;;;17.48;;
24873;SDS011;12945;42.648;23.370;2024-03-02T12:03:44;29.23;;;17.95;;
24873;SDS011;12945;42.648;23.370;2024-03-02T12:06:10;32.17;;;17.95;;
24873;SDS011;12945;42.648;23.370;2024-03-02T12:08:36;30.73;;;18.33;;
24873;SDS011;12945;42.648;23.370;2024-03-02T12:11:01;34.72;;;19.40;;
24873;SDS011;12945;42.648;23.370;2024-03-02T12:13:27;33.53;;;18.55;;
24873;SDS011;12945;42.648;23.370;2024-03-02T12:15:53;30.77;;;17.20;;
24873;SDS011;12945;42.648;23.370;2024-03-02T12:18:18;30.52;;;17.50;;
24873;SDS011;12945;42.648;23.370;2024-03-02T12:20:44;26.95;;;16.17;;
24873;SDS011;12945;42.648;23.370;2024-03-02T12:23:09;29.73;;;16.58;;
24873;SDS011;12945;42.648;23.370;2024-03-02T12:25:35;28.92;;;16.67;;
24873;SDS011;12945;42.648;23.370;2024-03-02T12:28:00;29.40;;;17.30;;
24873;SDS011;12945;42.648;23.370;2024-03-02T12:30:29;26.00;;;15.35;;
24873;SDS011;12945;42.648;23.370;2024-03-02T12:32:55;24.23;;;14.45;;
24873;SDS011;12945;42.648;23.370;2024-03-02T12:35:21;25.63;;;14.60;;
24873;SDS011;12945;42.648;23.370;2024-03-02T12:37:49;28.40;;;15.95;;
24873;SDS011;12945;42.648;23.370;2024-03-02T12:40:15;24.75;;;15.50;;
24873;SDS011;12945;42.648;23.370;2024-03-02T12:42:42;25.90;;;15.15;;
24873;SDS011;12945;42.648;23.370;2024-03-02T12:45:08;25.25;;;15.57;;
24873;SDS011;12945;42.648;23.370;2024-03-02T12:47:34;28.05;;;15.68;;
24873;SDS011;12945;42.648;23.370;2024-03-02T12:49:59;28.92;;;16.60;;
24873;SDS011;12945;42.648;23.370;2024-03-02T12:52:25;26.55;;;17.00;;
24873;SDS011;12945;42.648;23.370;2024-03-02T12:54:50;26.23;;;16.95;;
24873;SDS011;12945;42.648;23.370;2024-03-02T12:57:18;27.90;;;16.50;;
24873;SDS011;12945;42.648;23.370;2024-03-02T12:59:46;25.48;;;15.85;;
24873;SDS011;12945;42.648;23.370;2024-03-02T13:02:18;28.90;;;16.15;;
24873;SDS011;12945;42.648;23.370;2024-03-02T13:04:43;18.45;;;12.05;;
24873;SDS011;12945;42.648;23.370;2024-03-02T13:07:09;27.55;;;16.67;;
24873;SDS011;12945;42.648;23.370;2024-03-02T13:09:35;29.45;;;15.35;;
24873;SDS011;12945;42.648;23.370;2024-03-02T13:12:00;24.30;;;15.45;;
24873;SDS011;12945;42.648;23.370;2024-03-02T13:14:26;23.85;;;15.27;;
24873;SDS011;12945;42.648;23.370;2024-03-02T13:16:51;20.60;;;13.45;;
24873;SDS011;12945;42.648;23.370;2024-03-02T13:19:17;23.58;;;14.05;;
24873;SDS011;12945;42.648;23.370;2024-03-02T13:21:44;18.73;;;12.35;;
24873;SDS011;12945;42.648;23.370;2024-03-02T13:24:09;22.92;;;14.55;;
24873;SDS011;12945;42.648;23.370;2024-03-02T13:26:34;21.48;;;14.98;;
24873;SDS011;12945;42.648;23.370;2024-03-02T13:28:59;21.42;;;14.63;;
24873;SDS011;12945;42.648;23.370;2024-03-02T13:31:25;27.08;;;15.77;;
24873;SDS011;12945;42.648;23.370;2024-03-02T13:33:50;23.73;;;15.43;;
24873;SDS011;12945;42.648;23.370;2024-03-02T13:36:15;24.15;;;16.02;;
24873;SDS011;12945;42.648;23.370;2024-03-02T13:38:40;22.10;;;14.95;;
24873;SDS011;12945;42.648;23.370;2024-03-02T13:41:06;23.80;;;15.48;;
24873;SDS011;12945;42.648;23.370;2024-03-02T13:43:31;23.95;;;15.75;;
24873;SDS011;12945;42.648;23.370;2024-03-02T13:45:57;25.58;;;15.52;;
24873;SDS011;12945;42.648;23.370;2024-03-02T13:48:23;25.50;;;17.20;;
24873;SDS011;12945;42.648;23.370;2024-03-02T13:50:50;24.55;;;15.32;;
24873;SDS011;12945;42.648;23.370;2024-03-02T13:53:16;27.52;;;17.23;;
24873;SDS011;12945;42.648;23.370;2024-03-02T13:55:41;27.15;;;16.77;;
24873;SDS011;12945;42.648;23.370;2024-03-02T13:58:07;27.35;;;16.40;;
24873;SDS011;12945;42.648;23.370;2024-03-02T14:00:32;26.05;;;17.00;;
24873;SDS011;12945;42.648;23.370;2024-03-02T14:02:57;25.88;;;16.88;;
24873;SDS011;12945;42.648;23.370;2024-03-02T14:05:23;26.75;;;17.25;;
24873;SDS011;12945;42.648;23.370;2024-03-02T14:07:48;29.35;;;17.48;;
24873;SDS011;12945;42.648;23.370;2024-03-02T14:10:13;28.38;;;18.15;;